ポートオブスペイン の空港の天気 - METARとTAF

ピアルコ国際空港(ポートオブスペイン) ( TTPP / POS ) - トリニダード・トバゴ ポートオブスペイン (トリニダード島)
飛行場実況気象(Metar)
観測時間12/01 20:00 AST (12/02 00:00 UTC)
風向・風速東 2m/s
視程10km以上
天気現象
少しの雲 雲底高度 490m
気温26℃
湿度84%
気圧1011hPa
METARTTPP 020000Z 09004KT 9999 FEW016 26/23 Q1011 NOSIG
過去の天気等 Google飛行場航空写真 Wunderground天気予報

過去48時間のMETAR

飛行場予報(TAF)
発表時間: 12/01 18:00 AST (12/01 22:00 UTC)
予報対象時間: 1日20時 AST ~ 2日20時 AST
風向・風速静穏
視程10km以上
少しの雲 雲底高度 550m
2日8時 AST ~ 2日10時 AST に徐々に
風向・風速東 6m/s
TAF TTPP 012200Z 0200/0224 00000KT 9999 FEW018
BECMG 0212/0214 10012KT